<?xml version="1.0" encoding="UTF-8" standalone="no" ?>
<gpx xmlns="http://www.topografix.com/GPX/1/1" xmlns:xsi="http://www.w3.org/2001/XMLSchema-instance" xsi:schemaLocation="http://www.topografix.com/GPX/1/1 http://www.topografix.com/GPX/1/1/gpx.xsd" version="1.1" creator="VisuGPX - https://www.visugpx.com">
  <metadata>
    <name>De Meillerie à Salvigny</name>
    <desc><![CDATA[Randonnée en Haute-Savoie]]></desc>
  </metadata>
  <trk>
    <name><![CDATA[ACTIVE LOG: 26 JUL 2015 10:10]]></name>
    <trkseg>
      <trkpt lat="46.38098" lon="6.74015">
        <ele>1569.49</ele>
        <time>2015-07-26T08:11:12Z</time>
      </trkpt>
      <trkpt lat="46.38089" lon="6.74001">
        <ele>1571.89</ele>
        <time>2015-07-26T08:12:17Z</time>
      </trkpt>
      <trkpt lat="46.38061" lon="6.73962">
        <ele>1581.51</ele>
        <time>2015-07-26T08:13:22Z</time>
      </trkpt>
      <trkpt lat="46.38027" lon="6.73951">
        <ele>1591.12</ele>
        <time>2015-07-26T08:14:27Z</time>
      </trkpt>
      <trkpt lat="46.37993" lon="6.73914">
        <ele>1599.77</ele>
        <time>2015-07-26T08:15:32Z</time>
      </trkpt>
      <trkpt lat="46.37957" lon="6.73905">
        <ele>1606.02</ele>
        <time>2015-07-26T08:16:37Z</time>
      </trkpt>
      <trkpt lat="46.37899" lon="6.73938">
        <ele>1607.94</ele>
        <time>2015-07-26T08:17:42Z</time>
      </trkpt>
      <trkpt lat="46.37847" lon="6.73957">
        <ele>1613.71</ele>
        <time>2015-07-26T08:18:47Z</time>
      </trkpt>
      <trkpt lat="46.37817" lon="6.73948">
        <ele>1618.52</ele>
        <time>2015-07-26T08:19:52Z</time>
      </trkpt>
      <trkpt lat="46.3781" lon="6.7386">
        <ele>1613.71</ele>
        <time>2015-07-26T08:20:57Z</time>
      </trkpt>
      <trkpt lat="46.37818" lon="6.73772">
        <ele>1603.62</ele>
        <time>2015-07-26T08:22:02Z</time>
      </trkpt>
      <trkpt lat="46.37786" lon="6.73687">
        <ele>1608.9</ele>
        <time>2015-07-26T08:23:07Z</time>
      </trkpt>
      <trkpt lat="46.37748" lon="6.7365">
        <ele>1621.4</ele>
        <time>2015-07-26T08:24:12Z</time>
      </trkpt>
      <trkpt lat="46.37714" lon="6.73622">
        <ele>1632.46</ele>
        <time>2015-07-26T08:25:17Z</time>
      </trkpt>
      <trkpt lat="46.37688" lon="6.736">
        <ele>1642.55</ele>
        <time>2015-07-26T08:26:22Z</time>
      </trkpt>
      <trkpt lat="46.37654" lon="6.73583">
        <ele>1652.64</ele>
        <time>2015-07-26T08:27:27Z</time>
      </trkpt>
      <trkpt lat="46.37624" lon="6.73561">
        <ele>1663.22</ele>
        <time>2015-07-26T08:28:32Z</time>
      </trkpt>
      <trkpt lat="46.37594" lon="6.73548">
        <ele>1674.27</ele>
        <time>2015-07-26T08:29:37Z</time>
      </trkpt>
      <trkpt lat="46.37557" lon="6.73537">
        <ele>1683.41</ele>
        <time>2015-07-26T08:30:42Z</time>
      </trkpt>
      <trkpt lat="46.37568" lon="6.73594">
        <ele>1693.02</ele>
        <time>2015-07-26T08:31:47Z</time>
      </trkpt>
      <trkpt lat="46.37575" lon="6.73641">
        <ele>1702.15</ele>
        <time>2015-07-26T08:32:52Z</time>
      </trkpt>
      <trkpt lat="46.3759" lon="6.737">
        <ele>1711.76</ele>
        <time>2015-07-26T08:33:57Z</time>
      </trkpt>
      <trkpt lat="46.37602" lon="6.73768">
        <ele>1717.53</ele>
        <time>2015-07-26T08:35:02Z</time>
      </trkpt>
      <trkpt lat="46.37589" lon="6.73798">
        <ele>1722.34</ele>
        <time>2015-07-26T08:36:07Z</time>
      </trkpt>
      <trkpt lat="46.37561" lon="6.73801">
        <ele>1728.59</ele>
        <time>2015-07-26T08:37:12Z</time>
      </trkpt>
      <trkpt lat="46.37531" lon="6.7383">
        <ele>1739.64</ele>
        <time>2015-07-26T08:38:17Z</time>
      </trkpt>
      <trkpt lat="46.37506" lon="6.73868">
        <ele>1749.26</ele>
        <time>2015-07-26T08:39:22Z</time>
      </trkpt>
      <trkpt lat="46.37492" lon="6.73903">
        <ele>1758.87</ele>
        <time>2015-07-26T08:40:27Z</time>
      </trkpt>
      <trkpt lat="46.37469" lon="6.73944">
        <ele>1766.56</ele>
        <time>2015-07-26T08:41:32Z</time>
      </trkpt>
      <trkpt lat="46.37448" lon="6.73971">
        <ele>1776.17</ele>
        <time>2015-07-26T08:42:37Z</time>
      </trkpt>
      <trkpt lat="46.37427" lon="6.73994">
        <ele>1779.54</ele>
        <time>2015-07-26T08:43:42Z</time>
      </trkpt>
      <trkpt lat="46.37403" lon="6.74022">
        <ele>1786.75</ele>
        <time>2015-07-26T08:44:47Z</time>
      </trkpt>
      <trkpt lat="46.37373" lon="6.74048">
        <ele>1797.32</ele>
        <time>2015-07-26T08:45:52Z</time>
      </trkpt>
      <trkpt lat="46.37352" lon="6.74071">
        <ele>1806.94</ele>
        <time>2015-07-26T08:46:57Z</time>
      </trkpt>
      <trkpt lat="46.37328" lon="6.74109">
        <ele>1817.03</ele>
        <time>2015-07-26T08:48:02Z</time>
      </trkpt>
      <trkpt lat="46.37309" lon="6.7414">
        <ele>1827.6</ele>
        <time>2015-07-26T08:49:07Z</time>
      </trkpt>
      <trkpt lat="46.37287" lon="6.74159">
        <ele>1836.26</ele>
        <time>2015-07-26T08:50:12Z</time>
      </trkpt>
      <trkpt lat="46.37263" lon="6.7418">
        <ele>1845.87</ele>
        <time>2015-07-26T08:51:17Z</time>
      </trkpt>
      <trkpt lat="46.37234" lon="6.74206">
        <ele>1855</ele>
        <time>2015-07-26T08:52:22Z</time>
      </trkpt>
      <trkpt lat="46.37197" lon="6.74245">
        <ele>1862.69</ele>
        <time>2015-07-26T08:53:27Z</time>
      </trkpt>
      <trkpt lat="46.37181" lon="6.74272">
        <ele>1864.61</ele>
        <time>2015-07-26T08:54:32Z</time>
      </trkpt>
      <trkpt lat="46.37186" lon="6.74254">
        <ele>1864.13</ele>
        <time>2015-07-26T08:55:37Z</time>
      </trkpt>
      <trkpt lat="46.37157" lon="6.74229">
        <ele>1872.3</ele>
        <time>2015-07-26T08:56:42Z</time>
      </trkpt>
      <trkpt lat="46.37125" lon="6.7425">
        <ele>1879.03</ele>
        <time>2015-07-26T08:57:47Z</time>
      </trkpt>
      <trkpt lat="46.37098" lon="6.74268">
        <ele>1892.49</ele>
        <time>2015-07-26T08:58:52Z</time>
      </trkpt>
      <trkpt lat="46.37076" lon="6.74285">
        <ele>1902.59</ele>
        <time>2015-07-26T08:59:57Z</time>
      </trkpt>
      <trkpt lat="46.37053" lon="6.74295">
        <ele>1914.6</ele>
        <time>2015-07-26T09:01:02Z</time>
      </trkpt>
      <trkpt lat="46.37043" lon="6.74301">
        <ele>1922.77</ele>
        <time>2015-07-26T09:02:07Z</time>
      </trkpt>
      <trkpt lat="46.37036" lon="6.74315">
        <ele>1932.87</ele>
        <time>2015-07-26T09:03:12Z</time>
      </trkpt>
      <trkpt lat="46.37032" lon="6.74323">
        <ele>1936.71</ele>
        <time>2015-07-26T09:04:17Z</time>
      </trkpt>
      <trkpt lat="46.3703" lon="6.74328">
        <ele>1938.16</ele>
        <time>2015-07-26T09:05:22Z</time>
      </trkpt>
      <trkpt lat="46.37038" lon="6.74326">
        <ele>1940.08</ele>
        <time>2015-07-26T09:06:27Z</time>
      </trkpt>
      <trkpt lat="46.37028" lon="6.74331">
        <ele>1940.08</ele>
        <time>2015-07-26T09:07:32Z</time>
      </trkpt>
      <trkpt lat="46.3703" lon="6.74333">
        <ele>1942</ele>
        <time>2015-07-26T09:08:37Z</time>
      </trkpt>
      <trkpt lat="46.37036" lon="6.74327">
        <ele>1941.52</ele>
        <time>2015-07-26T09:09:42Z</time>
      </trkpt>
      <trkpt lat="46.37019" lon="6.74334">
        <ele>1947.77</ele>
        <time>2015-07-26T09:10:47Z</time>
      </trkpt>
      <trkpt lat="46.37014" lon="6.74333">
        <ele>1950.17</ele>
        <time>2015-07-26T09:11:52Z</time>
      </trkpt>
      <trkpt lat="46.37012" lon="6.74303">
        <ele>1955.94</ele>
        <time>2015-07-26T09:12:57Z</time>
      </trkpt>
      <trkpt lat="46.37007" lon="6.7426">
        <ele>1965.07</ele>
        <time>2015-07-26T09:14:02Z</time>
      </trkpt>
      <trkpt lat="46.37017" lon="6.74228">
        <ele>1971.32</ele>
        <time>2015-07-26T09:15:07Z</time>
      </trkpt>
      <trkpt lat="46.36998" lon="6.742">
        <ele>1963.15</ele>
        <time>2015-07-26T09:16:12Z</time>
      </trkpt>
      <trkpt lat="46.36979" lon="6.74184">
        <ele>1950.17</ele>
        <time>2015-07-26T09:17:17Z</time>
      </trkpt>
      <trkpt lat="46.36963" lon="6.74175">
        <ele>1940.08</ele>
        <time>2015-07-26T09:18:22Z</time>
      </trkpt>
      <trkpt lat="46.36945" lon="6.74152">
        <ele>1931.43</ele>
        <time>2015-07-26T09:19:27Z</time>
      </trkpt>
      <trkpt lat="46.36926" lon="6.74124">
        <ele>1928.06</ele>
        <time>2015-07-26T09:20:32Z</time>
      </trkpt>
      <trkpt lat="46.36904" lon="6.74078">
        <ele>1917.49</ele>
        <time>2015-07-26T09:21:37Z</time>
      </trkpt>
      <trkpt lat="46.36901" lon="6.74064">
        <ele>1916.53</ele>
        <time>2015-07-26T09:21:57Z</time>
      </trkpt>
    </trkseg>
  </trk>
</gpx>